sensor_id;sensor_type;location;lat;lon;timestamp;temperature;humidity
20200;DHT22;36284;37.236;-121.934;2022-08-19T00:01:58;30.40;98.00
20200;DHT22;36284;37.236;-121.934;2022-08-19T00:04:31;30.20;98.40
20200;DHT22;36284;37.236;-121.934;2022-08-19T00:06:59;30.30;98.60
20200;DHT22;36284;37.236;-121.934;2022-08-19T00:09:27;29.70;97.70
20200;DHT22;36284;37.236;-121.934;2022-08-19T00:11:54;29.60;98.70
20200;DHT22;36284;37.236;-121.934;2022-08-19T00:14:22;29.70;99.30
20200;DHT22;36284;37.236;-121.934;2022-08-19T00:16:50;29.80;98.80
20200;DHT22;36284;37.236;-121.934;2022-08-19T00:19:20;29.90;98.50
20200;DHT22;36284;37.236;-121.934;2022-08-19T00:21:47;29.40;98.40
20200;DHT22;36284;37.236;-121.934;2022-08-19T00:24:15;29.40;98.60
20200;DHT22;36284;37.236;-121.934;2022-08-19T00:26:43;29.10;99.60
20200;DHT22;36284;37.236;-121.934;2022-08-19T00:29:14;28.60;99.90
20200;DHT22;36284;37.236;-121.934;2022-08-19T00:31:42;28.80;99.90
20200;DHT22;36284;37.236;-121.934;2022-08-19T00:34:10;28.10;99.90
20200;DHT22;36284;37.236;-121.934;2022-08-19T00:36:38;28.40;99.90
20200;DHT22;36284;37.236;-121.934;2022-08-19T00:39:06;28.80;99.90
20200;DHT22;36284;37.236;-121.934;2022-08-19T00:41:33;28.80;99.90
20200;DHT22;36284;37.236;-121.934;2022-08-19T00:46:37;28.50;99.90
20200;DHT22;36284;37.236;-121.934;2022-08-19T00:49:19;28.50;99.90
20200;DHT22;36284;37.236;-121.934;2022-08-19T00:51:50;28.70;99.90
20200;DHT22;36284;37.236;-121.934;2022-08-19T00:54:18;27.90;99.90
20200;DHT22;36284;37.236;-121.934;2022-08-19T00:56:45;27.70;99.90
20200;DHT22;36284;37.236;-121.934;2022-08-19T00:59:13;27.90;99.90
20200;DHT22;36284;37.236;-121.934;2022-08-19T01:01:43;27.80;99.90
20200;DHT22;36284;37.236;-121.934;2022-08-19T01:04:11;27.50;99.90
20200;DHT22;36284;37.236;-121.934;2022-08-19T01:06:39;27.40;99.90
20200;DHT22;36284;37.236;-121.934;2022-08-19T01:09:08;27.50;99.90
20200;DHT22;36284;37.236;-121.934;2022-08-19T01:11:38;27.20;99.90
20200;DHT22;36284;37.236;-121.934;2022-08-19T01:14:07;27.20;99.90
20200;DHT22;36284;37.236;-121.934;2022-08-19T01:16:35;27.00;99.90
20200;DHT22;36284;37.236;-121.934;2022-08-19T01:19:35;26.90;99.90
20200;DHT22;36284;37.236;-121.934;2022-08-19T01:22:37;26.40;99.90
20200;DHT22;36284;37.236;-121.934;2022-08-19T01:24:55;26.50;99.90
20200;DHT22;36284;37.236;-121.934;2022-08-19T01:27:23;26.10;99.90
20200;DHT22;36284;37.236;-121.934;2022-08-19T01:29:50;26.20;99.90
20200;DHT22;36284;37.236;-121.934;2022-08-19T01:32:17;25.60;99.90
20200;DHT22;36284;37.236;-121.934;2022-08-19T01:34:45;25.20;99.90
20200;DHT22;36284;37.236;-121.934;2022-08-19T01:37:14;25.50;99.90
20200;DHT22;36284;37.236;-121.934;2022-08-19T01:39:42;25.30;99.90
20200;DHT22;36284;37.236;-121.934;2022-08-19T01:42:09;25.30;99.90
20200;DHT22;36284;37.236;-121.934;2022-08-19T01:44:40;24.90;99.90
20200;DHT22;36284;37.236;-121.934;2022-08-19T01:47:10;24.90;99.90
20200;DHT22;36284;37.236;-121.934;2022-08-19T01:49:37;24.70;99.90
20200;DHT22;36284;37.236;-121.934;2022-08-19T01:52:06;24.50;99.90
20200;DHT22;36284;37.236;-121.934;2022-08-19T01:54:33;24.40;99.90
20200;DHT22;36284;37.236;-121.934;2022-08-19T01:57:10;23.90;99.90
20200;DHT22;36284;37.236;-121.934;2022-08-19T01:59:37;24.00;99.90
20200;DHT22;36284;37.236;-121.934;2022-08-19T02:02:06;24.00;99.90
20200;DHT22;36284;37.236;-121.934;2022-08-19T02:04:36;24.10;99.90
20200;DHT22;36284;37.236;-121.934;2022-08-19T02:07:07;24.00;99.90
20200;DHT22;36284;37.236;-121.934;2022-08-19T02:09:35;24.00;99.90
20200;DHT22;36284;37.236;-121.934;2022-08-19T02:12:03;24.00;99.90
20200;DHT22;36284;37.236;-121.934;2022-08-19T02:14:30;23.60;99.90
20200;DHT22;36284;37.236;-121.934;2022-08-19T02:16:56;23.60;99.90
20200;DHT22;36284;37.236;-121.934;2022-08-19T02:19:24;23.50;99.90
20200;DHT22;36284;37.236;-121.934;2022-08-19T02:21:51;23.50;99.90
20200;DHT22;36284;37.236;-121.934;2022-08-19T02:24:17;23.50;99.90
20200;DHT22;36284;37.236;-121.934;2022-08-19T02:26:44;23.30;99.90
20200;DHT22;36284;37.236;-121.934;2022-08-19T02:29:11;23.20;99.90
20200;DHT22;36284;37.236;-121.934;2022-08-19T02:31:38;23.50;99.90
20200;DHT22;36284;37.236;-121.934;2022-08-19T02:34:05;23.10;99.90
20200;DHT22;36284;37.236;-121.934;2022-08-19T02:36:32;23.00;99.90
20200;DHT22;36284;37.236;-121.934;2022-08-19T02:38:59;22.70;99.90
20200;DHT22;36284;37.236;-121.934;2022-08-19T02:41:29;22.20;99.90
20200;DHT22;36284;37.236;-121.934;2022-08-19T02:43:58;22.10;99.90
20200;DHT22;36284;37.236;-121.934;2022-08-19T02:46:28;21.90;99.90
20200;DHT22;36284;37.236;-121.934;2022-08-19T02:48:58;21.80;99.90
20200;DHT22;36284;37.236;-121.934;2022-08-19T02:51:31;22.00;99.90
20200;DHT22;36284;37.236;-121.934;2022-08-19T02:53:58;21.90;99.90
20200;DHT22;36284;37.236;-121.934;2022-08-19T02:56:27;21.40;99.90
20200;DHT22;36284;37.236;-121.934;2022-08-19T02:58:55;21.30;99.90
20200;DHT22;36284;37.236;-121.934;2022-08-19T03:01:26;21.30;99.90
20200;DHT22;36284;37.236;-121.934;2022-08-19T03:03:55;21.30;99.90
20200;DHT22;36284;37.236;-121.934;2022-08-19T03:06:22;21.50;99.90
20200;DHT22;36284;37.236;-121.934;2022-08-19T03:08:50;21.40;99.90
20200;DHT22;36284;37.236;-121.934;2022-08-19T03:11:24;21.10;99.90
20200;DHT22;36284;37.236;-121.934;2022-08-19T03:13:51;21.10;99.90
20200;DHT22;36284;37.236;-121.934;2022-08-19T03:16:21;21.10;99.90
20200;DHT22;36284;37.236;-121.934;2022-08-19T03:18:49;20.90;99.90
20200;DHT22;36284;37.236;-121.934;2022-08-19T03:21:26;20.90;99.90
20200;DHT22;36284;37.236;-121.934;2022-08-19T03:24:01;20.90;99.90
20200;DHT22;36284;37.236;-121.934;2022-08-19T03:26:29;20.80;99.90
20200;DHT22;36284;37.236;-121.934;2022-08-19T03:28:56;20.70;99.90
20200;DHT22;36284;37.236;-121.934;2022-08-19T03:31:26;20.70;99.90
20200;DHT22;36284;37.236;-121.934;2022-08-19T03:33:53;20.50;99.90
20200;DHT22;36284;37.236;-121.934;2022-08-19T03:36:23;20.20;99.90
20200;DHT22;36284;37.236;-121.934;2022-08-19T03:38:54;20.30;99.90
20200;DHT22;36284;37.236;-121.934;2022-08-19T03:41:23;20.50;99.90
20200;DHT22;36284;37.236;-121.934;2022-08-19T03:43:52;20.40;99.90
20200;DHT22;36284;37.236;-121.934;2022-08-19T03:46:22;20.40;99.90
20200;DHT22;36284;37.236;-121.934;2022-08-19T03:48:51;20.30;99.90
20200;DHT22;36284;37.236;-121.934;2022-08-19T03:51:28;20.10;99.90
20200;DHT22;36284;37.236;-121.934;2022-08-19T03:53:58;20.10;99.90
20200;DHT22;36284;37.236;-121.934;2022-08-19T03:56:27;19.90;99.90
20200;DHT22;36284;37.236;-121.934;2022-08-19T03:58:58;19.90;99.90
20200;DHT22;36284;37.236;-121.934;2022-08-19T04:01:28;19.80;99.90
20200;DHT22;36284;37.236;-121.934;2022-08-19T04:03:59;19.70;99.90
20200;DHT22;36284;37.236;-121.934;2022-08-19T04:06:28;19.70;99.90
20200;DHT22;36284;37.236;-121.934;2022-08-19T04:08:57;19.70;99.90
20200;DHT22;36284;37.236;-121.934;2022-08-19T04:11:34;19.60;99.90
20200;DHT22;36284;37.236;-121.934;2022-08-19T04:14:02;19.60;99.90
20200;DHT22;36284;37.236;-121.934;2022-08-19T04:16:29;19.70;99.90
20200;DHT22;36284;37.236;-121.934;2022-08-19T04:19:00;19.90;99.90
20200;DHT22;36284;37.236;-121.934;2022-08-19T04:21:28;19.70;99.90
20200;DHT22;36284;37.236;-121.934;2022-08-19T04:23:56;19.80;99.90
20200;DHT22;36284;37.236;-121.934;2022-08-19T04:26:29;19.70;99.90
20200;DHT22;36284;37.236;-121.934;2022-08-19T04:28:59;19.60;99.90
20200;DHT22;36284;37.236;-121.934;2022-08-19T04:31:28;19.50;99.90
20200;DHT22;36284;37.236;-121.934;2022-08-19T04:33:57;19.30;99.90
20200;DHT22;36284;37.236;-121.934;2022-08-19T04:36:27;19.40;99.90
20200;DHT22;36284;37.236;-121.934;2022-08-19T04:38:56;19.30;99.90
20200;DHT22;36284;37.236;-121.934;2022-08-19T04:41:24;19.20;99.90
20200;DHT22;36284;37.236;-121.934;2022-08-19T04:44:10;19.20;99.90
20200;DHT22;36284;37.236;-121.934;2022-08-19T04:46:38;19.20;99.90
20200;DHT22;36284;37.236;-121.934;2022-08-19T04:49:06;19.10;99.90
20200;DHT22;36284;37.236;-121.934;2022-08-19T04:51:34;19.10;99.90
20200;DHT22;36284;37.236;-121.934;2022-08-19T04:54:02;19.10;99.90
20200;DHT22;36284;37.236;-121.934;2022-08-19T04:56:29;19.10;99.90
20200;DHT22;36284;37.236;-121.934;2022-08-19T04:58:57;19.10;99.90
20200;DHT22;36284;37.236;-121.934;2022-08-19T05:01:27;19.20;99.90
20200;DHT22;36284;37.236;-121.934;2022-08-19T05:03:55;19.10;99.90
20200;DHT22;36284;37.236;-121.934;2022-08-19T05:06:23;19.10;99.90
20200;DHT22;36284;37.236;-121.934;2022-08-19T05:08:51;19.00;99.90
20200;DHT22;36284;37.236;-121.934;2022-08-19T05:11:30;19.00;99.90
20200;DHT22;36284;37.236;-121.934;2022-08-19T05:13:57;18.90;99.90
20200;DHT22;36284;37.236;-121.934;2022-08-19T05:16:25;18.40;99.90
20200;DHT22;36284;37.236;-121.934;2022-08-19T05:18:53;18.80;99.90
20200;DHT22;36284;37.236;-121.934;2022-08-19T05:21:40;18.50;99.90
20200;DHT22;36284;37.236;-121.934;2022-08-19T05:24:25;18.50;99.90
20200;DHT22;36284;37.236;-121.934;2022-08-19T05:26:54;18.30;99.90
20200;DHT22;36284;37.236;-121.934;2022-08-19T05:29:24;18.20;99.90
20200;DHT22;36284;37.236;-121.934;2022-08-19T05:31:52;18.30;99.90
20200;DHT22;36284;37.236;-121.934;2022-08-19T05:34:21;18.20;99.90
20200;DHT22;36284;37.236;-121.934;2022-08-19T05:36:53;18.00;99.90
20200;DHT22;36284;37.236;-121.934;2022-08-19T05:39:25;18.00;99.90
20200;DHT22;36284;37.236;-121.934;2022-08-19T05:42:00;18.00;99.90
20200;DHT22;36284;37.236;-121.934;2022-08-19T05:44:32;17.90;99.90
20200;DHT22;36284;37.236;-121.934;2022-08-19T05:47:01;17.80;99.90
20200;DHT22;36284;37.236;-121.934;2022-08-19T05:49:29;17.80;99.90
20200;DHT22;36284;37.236;-121.934;2022-08-19T05:51:57;17.80;99.90
20200;DHT22;36284;37.236;-121.934;2022-08-19T05:54:26;17.70;99.90
20200;DHT22;36284;37.236;-121.934;2022-08-19T05:56:53;17.70;99.90
20200;DHT22;36284;37.236;-121.934;2022-08-19T05:59:21;17.70;99.90
20200;DHT22;36284;37.236;-121.934;2022-08-19T06:01:50;17.60;99.90
20200;DHT22;36284;37.236;-121.934;2022-08-19T06:04:19;17.60;99.90
20200;DHT22;36284;37.236;-121.934;2022-08-19T06:06:51;17.50;99.90
20200;DHT22;36284;37.236;-121.934;2022-08-19T06:09:20;17.60;99.90
20200;DHT22;36284;37.236;-121.934;2022-08-19T06:11:53;17.50;99.90
20200;DHT22;36284;37.236;-121.934;2022-08-19T06:14:25;17.40;99.90
20200;DHT22;36284;37.236;-121.934;2022-08-19T06:16:52;17.40;99.90
20200;DHT22;36284;37.236;-121.934;2022-08-19T06:19:21;17.40;99.90
20200;DHT22;36284;37.236;-121.934;2022-08-19T06:21:52;17.30;99.90
20200;DHT22;36284;37.236;-121.934;2022-08-19T06:24:24;17.30;99.90
20200;DHT22;36284;37.236;-121.934;2022-08-19T06:26:53;17.30;99.90
20200;DHT22;36284;37.236;-121.934;2022-08-19T06:29:23;17.30;99.90
20200;DHT22;36284;37.236;-121.934;2022-08-19T06:31:55;17.20;99.90
20200;DHT22;36284;37.236;-121.934;2022-08-19T06:34:23;17.20;99.90
20200;DHT22;36284;37.236;-121.934;2022-08-19T06:36:51;17.00;99.90
20200;DHT22;36284;37.236;-121.934;2022-08-19T06:39:24;17.00;99.90
20200;DHT22;36284;37.236;-121.934;2022-08-19T06:41:53;17.10;99.90
20200;DHT22;36284;37.236;-121.934;2022-08-19T06:44:23;17.10;99.90
20200;DHT22;36284;37.236;-121.934;2022-08-19T06:46:52;17.10;99.90
20200;DHT22;36284;37.236;-121.934;2022-08-19T06:49:19;17.10;99.90
20200;DHT22;36284;37.236;-121.934;2022-08-19T06:51:47;17.10;99.90
20200;DHT22;36284;37.236;-121.934;2022-08-19T06:54:16;17.10;99.90
20200;DHT22;36284;37.236;-121.934;2022-08-19T06:56:43;17.00;99.90
20200;DHT22;36284;37.236;-121.934;2022-08-19T06:59:19;16.90;99.90
20200;DHT22;36284;37.236;-121.934;2022-08-19T07:01:51;16.90;99.90
20200;DHT22;36284;37.236;-121.934;2022-08-19T07:04:27;16.90;99.90
20200;DHT22;36284;37.236;-121.934;2022-08-19T07:07:07;16.90;99.90
20200;DHT22;36284;37.236;-121.934;2022-08-19T07:09:36;16.80;99.90
20200;DHT22;36284;37.236;-121.934;2022-08-19T07:12:06;16.80;99.90
20200;DHT22;36284;37.236;-121.934;2022-08-19T07:14:34;16.70;99.90
20200;DHT22;36284;37.236;-121.934;2022-08-19T07:17:08;16.60;99.90
20200;DHT22;36284;37.236;-121.934;2022-08-19T07:19:36;16.60;99.90
20200;DHT22;36284;37.236;-121.934;2022-08-19T07:22:05;16.60;99.90
20200;DHT22;36284;37.236;-121.934;2022-08-19T07:24:34;16.60;99.90
20200;DHT22;36284;37.236;-121.934;2022-08-19T07:27:03;16.50;99.90
20200;DHT22;36284;37.236;-121.934;2022-08-19T07:29:32;16.50;99.90
20200;DHT22;36284;37.236;-121.934;2022-08-19T07:32:00;16.50;99.90
20200;DHT22;36284;37.236;-121.934;2022-08-19T07:34:29;16.50;99.90
20200;DHT22;36284;37.236;-121.934;2022-08-19T07:36:57;16.50;99.90
20200;DHT22;36284;37.236;-121.934;2022-08-19T07:39:26;16.40;99.90
20200;DHT22;36284;37.236;-121.934;2022-08-19T07:41:53;16.40;99.90
20200;DHT22;36284;37.236;-121.934;2022-08-19T07:44:21;16.40;99.90
20200;DHT22;36284;37.236;-121.934;2022-08-19T07:46:51;16.30;99.90
20200;DHT22;36284;37.236;-121.934;2022-08-19T07:49:19;16.30;99.90
20200;DHT22;36284;37.236;-121.934;2022-08-19T07:51:52;16.30;99.90
20200;DHT22;36284;37.236;-121.934;2022-08-19T07:54:21;16.40;99.90
20200;DHT22;36284;37.236;-121.934;2022-08-19T07:56:48;16.30;99.90
20200;DHT22;36284;37.236;-121.934;2022-08-19T07:59:18;16.30;99.90
20200;DHT22;36284;37.236;-121.934;2022-08-19T08:01:46;16.30;99.90
20200;DHT22;36284;37.236;-121.934;2022-08-19T08:04:14;16.30;99.90
20200;DHT22;36284;37.236;-121.934;2022-08-19T08:06:59;16.30;99.90
20200;DHT22;36284;37.236;-121.934;2022-08-19T08:09:45;16.20;99.90
20200;DHT22;36284;37.236;-121.934;2022-08-19T08:14:46;16.20;99.90
20200;DHT22;36284;37.236;-121.934;2022-08-19T08:17:15;16.20;99.90
20200;DHT22;36284;37.236;-121.934;2022-08-19T08:19:44;16.10;99.90
20200;DHT22;36284;37.236;-121.934;2022-08-19T08:22:14;16.10;99.90
20200;DHT22;36284;37.236;-121.934;2022-08-19T08:25:15;16.10;99.90
20200;DHT22;36284;37.236;-121.934;2022-08-19T08:27:43;16.10;99.90
20200;DHT22;36284;37.236;-121.934;2022-08-19T08:30:14;16.20;99.90
20200;DHT22;36284;37.236;-121.934;2022-08-19T08:32:42;16.20;99.90
20200;DHT22;36284;37.236;-121.934;2022-08-19T08:35:13;16.30;99.90
20200;DHT22;36284;37.236;-121.934;2022-08-19T08:37:40;16.30;99.90
20200;DHT22;36284;37.236;-121.934;2022-08-19T08:40:50;16.40;99.90
20200;DHT22;36284;37.236;-121.934;2022-08-19T08:43:33;16.50;99.90
20200;DHT22;36284;37.236;-121.934;2022-08-19T08:49:19;16.70;99.90
20200;DHT22;36284;37.236;-121.934;2022-08-19T08:51:52;16.70;99.90
20200;DHT22;36284;37.236;-121.934;2022-08-19T08:54:24;16.80;99.90
20200;DHT22;36284;37.236;-121.934;2022-08-19T08:56:53;16.90;99.90
20200;DHT22;36284;37.236;-121.934;2022-08-19T08:59:31;16.90;99.90
20200;DHT22;36284;37.236;-121.934;2022-08-19T09:02:01;17.00;99.90
20200;DHT22;36284;37.236;-121.934;2022-08-19T09:04:28;17.00;99.90
20200;DHT22;36284;37.236;-121.934;2022-08-19T09:07:06;17.10;99.90
20200;DHT22;36284;37.236;-121.934;2022-08-19T09:09:43;17.20;99.90
20200;DHT22;36284;37.236;-121.934;2022-08-19T09:12:45;17.20;99.90
20200;DHT22;36284;37.236;-121.934;2022-08-19T09:15:10;17.10;99.90
20200;DHT22;36284;37.236;-121.934;2022-08-19T09:17:38;16.50;99.90
20200;DHT22;36284;37.236;-121.934;2022-08-19T09:20:23;17.10;99.90
20200;DHT22;36284;37.236;-121.934;2022-08-19T09:22:50;17.00;99.90
20200;DHT22;36284;37.236;-121.934;2022-08-19T09:25:21;17.20;99.90
20200;DHT22;36284;37.236;-121.934;2022-08-19T09:27:50;17.30;99.90
20200;DHT22;36284;37.236;-121.934;2022-08-19T09:30:24;17.30;99.90
20200;DHT22;36284;37.236;-121.934;2022-08-19T09:32:52;17.30;99.90
20200;DHT22;36284;37.236;-121.934;2022-08-19T09:35:21;17.30;99.90
20200;DHT22;36284;37.236;-121.934;2022-08-19T09:37:49;17.30;99.90
20200;DHT22;36284;37.236;-121.934;2022-08-19T09:40:17;17.20;99.90
20200;DHT22;36284;37.236;-121.934;2022-08-19T09:42:45;17.10;99.90
20200;DHT22;36284;37.236;-121.934;2022-08-19T09:45:16;17.10;99.90
20200;DHT22;36284;37.236;-121.934;2022-08-19T09:47:44;17.20;99.90
20200;DHT22;36284;37.236;-121.934;2022-08-19T09:50:12;17.10;99.90
20200;DHT22;36284;37.236;-121.934;2022-08-19T09:52:39;17.10;99.90
20200;DHT22;36284;37.236;-121.934;2022-08-19T09:55:08;17.20;99.90
20200;DHT22;36284;37.236;-121.934;2022-08-19T09:57:36;17.20;99.90
20200;DHT22;36284;37.236;-121.934;2022-08-19T10:00:05;17.20;99.90
20200;DHT22;36284;37.236;-121.934;2022-08-19T10:02:34;17.20;99.90
20200;DHT22;36284;37.236;-121.934;2022-08-19T10:05:01;17.20;99.90
20200;DHT22;36284;37.236;-121.934;2022-08-19T10:07:46;17.30;99.90
20200;DHT22;36284;37.236;-121.934;2022-08-19T10:10:14;17.20;99.90
20200;DHT22;36284;37.236;-121.934;2022-08-19T10:12:41;17.20;99.90
20200;DHT22;36284;37.236;-121.934;2022-08-19T10:15:14;17.30;99.90
20200;DHT22;36284;37.236;-121.934;2022-08-19T10:17:41;17.30;99.90
20200;DHT22;36284;37.236;-121.934;2022-08-19T10:20:08;17.20;99.90
20200;DHT22;36284;37.236;-121.934;2022-08-19T10:22:35;17.10;99.90
20200;DHT22;36284;37.236;-121.934;2022-08-19T10:25:05;17.10;99.90
20200;DHT22;36284;37.236;-121.934;2022-08-19T10:27:32;17.00;99.90
20200;DHT22;36284;37.236;-121.934;2022-08-19T10:29:59;17.00;99.90
20200;DHT22;36284;37.236;-121.934;2022-08-19T10:32:26;17.00;99.90
20200;DHT22;36284;37.236;-121.934;2022-08-19T10:34:53;16.90;99.90
20200;DHT22;36284;37.236;-121.934;2022-08-19T10:37:20;17.00;99.90
20200;DHT22;36284;37.236;-121.934;2022-08-19T10:39:47;17.00;99.90
20200;DHT22;36284;37.236;-121.934;2022-08-19T10:42:14;17.10;99.90
20200;DHT22;36284;37.236;-121.934;2022-08-19T10:44:43;17.10;99.90
20200;DHT22;36284;37.236;-121.934;2022-08-19T10:47:10;17.10;99.90
20200;DHT22;36284;37.236;-121.934;2022-08-19T10:49:37;16.90;99.90
20200;DHT22;36284;37.236;-121.934;2022-08-19T10:52:24;16.80;99.90
20200;DHT22;36284;37.236;-121.934;2022-08-19T10:55:07;17.00;99.90
20200;DHT22;36284;37.236;-121.934;2022-08-19T10:57:52;17.10;99.90
20200;DHT22;36284;37.236;-121.934;2022-08-19T11:00:20;17.10;99.90
20200;DHT22;36284;37.236;-121.934;2022-08-19T11:02:49;17.10;99.90
20200;DHT22;36284;37.236;-121.934;2022-08-19T11:05:16;17.10;99.90
20200;DHT22;36284;37.236;-121.934;2022-08-19T11:07:44;17.00;99.90
20200;DHT22;36284;37.236;-121.934;2022-08-19T11:10:13;17.00;99.90
20200;DHT22;36284;37.236;-121.934;2022-08-19T11:12:41;17.00;99.90
20200;DHT22;36284;37.236;-121.934;2022-08-19T11:15:09;17.00;99.90
20200;DHT22;36284;37.236;-121.934;2022-08-19T11:17:38;17.10;99.90
20200;DHT22;36284;37.236;-121.934;2022-08-19T11:20:11;17.20;99.90
20200;DHT22;36284;37.236;-121.934;2022-08-19T11:22:39;17.10;99.90
20200;DHT22;36284;37.236;-121.934;2022-08-19T11:25:07;17.20;99.90
20200;DHT22;36284;37.236;-121.934;2022-08-19T11:27:40;17.20;99.90
20200;DHT22;36284;37.236;-121.934;2022-08-19T11:30:11;17.20;99.90
20200;DHT22;36284;37.236;-121.934;2022-08-19T11:32:38;17.10;99.90
20200;DHT22;36284;37.236;-121.934;2022-08-19T11:35:06;17.10;99.90
20200;DHT22;36284;37.236;-121.934;2022-08-19T11:37:33;17.10;99.90
20200;DHT22;36284;37.236;-121.934;2022-08-19T11:40:05;17.10;99.90
20200;DHT22;36284;37.236;-121.934;2022-08-19T11:42:32;17.20;99.90
20200;DHT22;36284;37.236;-121.934;2022-08-19T11:45:17;17.20;99.90
20200;DHT22;36284;37.236;-121.934;2022-08-19T11:47:44;17.20;99.90
20200;DHT22;36284;37.236;-121.934;2022-08-19T11:50:13;17.20;99.90
20200;DHT22;36284;37.236;-121.934;2022-08-19T11:52:40;17.20;99.90
20200;DHT22;36284;37.236;-121.934;2022-08-19T11:55:08;17.00;99.90
20200;DHT22;36284;37.236;-121.934;2022-08-19T11:57:35;17.10;99.90
20200;DHT22;36284;37.236;-121.934;2022-08-19T12:00:02;17.10;99.90
20200;DHT22;36284;37.236;-121.934;2022-08-19T12:02:30;17.10;99.90
20200;DHT22;36284;37.236;-121.934;2022-08-19T12:04:58;17.10;99.90
20200;DHT22;36284;37.236;-121.934;2022-08-19T12:07:25;17.00;99.90
20200;DHT22;36284;37.236;-121.934;2022-08-19T12:09:52;17.00;99.90
20200;DHT22;36284;37.236;-121.934;2022-08-19T12:12:19;16.90;99.90
20200;DHT22;36284;37.236;-121.934;2022-08-19T12:14:46;16.90;99.90
20200;DHT22;36284;37.236;-121.934;2022-08-19T12:17:13;16.90;99.90
20200;DHT22;36284;37.236;-121.934;2022-08-19T12:19:40;16.80;99.90
20200;DHT22;36284;37.236;-121.934;2022-08-19T12:22:07;16.90;99.90
20200;DHT22;36284;37.236;-121.934;2022-08-19T12:24:34;16.90;99.90
20200;DHT22;36284;37.236;-121.934;2022-08-19T12:27:01;16.70;99.90
20200;DHT22;36284;37.236;-121.934;2022-08-19T12:29:28;16.70;99.90
20200;DHT22;36284;37.236;-121.934;2022-08-19T12:31:57;16.60;99.90
20200;DHT22;36284;37.236;-121.934;2022-08-19T12:34:29;16.70;99.90
20200;DHT22;36284;37.236;-121.934;2022-08-19T12:36:58;16.80;99.90
20200;DHT22;36284;37.236;-121.934;2022-08-19T12:39:25;16.80;99.90
20200;DHT22;36284;37.236;-121.934;2022-08-19T12:41:52;16.80;99.90
20200;DHT22;36284;37.236;-121.934;2022-08-19T12:44:20;16.80;99.90
20200;DHT22;36284;37.236;-121.934;2022-08-19T12:46:48;16.90;99.90
20200;DHT22;36284;37.236;-121.934;2022-08-19T12:49:15;17.00;99.90
20200;DHT22;36284;37.236;-121.934;2022-08-19T12:51:42;16.90;99.90
20200;DHT22;36284;37.236;-121.934;2022-08-19T12:54:09;17.00;99.90
20200;DHT22;36284;37.236;-121.934;2022-08-19T12:56:36;17.10;99.90
20200;DHT22;36284;37.236;-121.934;2022-08-19T12:59:04;17.00;99.90
20200;DHT22;36284;37.236;-121.934;2022-08-19T13:01:31;17.00;99.90
20200;DHT22;36284;37.236;-121.934;2022-08-19T13:03:59;16.90;99.90
20200;DHT22;36284;37.236;-121.934;2022-08-19T13:06:26;16.90;99.90
20200;DHT22;36284;37.236;-121.934;2022-08-19T13:08:54;16.80;99.90
20200;DHT22;36284;37.236;-121.934;2022-08-19T13:11:22;16.70;99.90
20200;DHT22;36284;37.236;-121.934;2022-08-19T13:13:52;16.70;99.90
20200;DHT22;36284;37.236;-121.934;2022-08-19T13:16:21;16.60;99.90
20200;DHT22;36284;37.236;-121.934;2022-08-19T13:18:48;16.60;99.90
20200;DHT22;36284;37.236;-121.934;2022-08-19T13:21:20;16.70;99.90
20200;DHT22;36284;37.236;-121.934;2022-08-19T13:23:47;16.70;99.90
20200;DHT22;36284;37.236;-121.934;2022-08-19T13:26:15;16.70;99.90
20200;DHT22;36284;37.236;-121.934;2022-08-19T13:28:44;16.80;99.90
20200;DHT22;36284;37.236;-121.934;2022-08-19T13:31:32;17.00;99.90
20200;DHT22;36284;37.236;-121.934;2022-08-19T13:34:25;16.80;99.90
20200;DHT22;36284;37.236;-121.934;2022-08-19T13:36:53;16.80;99.90
20200;DHT22;36284;37.236;-121.934;2022-08-19T13:39:20;16.90;99.90
20200;DHT22;36284;37.236;-121.934;2022-08-19T13:41:49;16.90;99.90
20200;DHT22;36284;37.236;-121.934;2022-08-19T13:44:16;16.90;99.90
20200;DHT22;36284;37.236;-121.934;2022-08-19T13:46:49;16.90;99.90
20200;DHT22;36284;37.236;-121.934;2022-08-19T13:49:19;17.00;99.90
20200;DHT22;36284;37.236;-121.934;2022-08-19T13:51:46;16.90;99.90
20200;DHT22;36284;37.236;-121.934;2022-08-19T13:54:13;16.90;99.90
20200;DHT22;36284;37.236;-121.934;2022-08-19T13:56:42;16.90;99.90
20200;DHT22;36284;37.236;-121.934;2022-08-19T13:59:10;17.00;99.90
20200;DHT22;36284;37.236;-121.934;2022-08-19T14:01:38;17.00;99.90
20200;DHT22;36284;37.236;-121.934;2022-08-19T14:04:05;17.00;99.90
20200;DHT22;36284;37.236;-121.934;2022-08-19T14:06:33;17.10;99.90
20200;DHT22;36284;37.236;-121.934;2022-08-19T14:09:00;17.10;99.90
20200;DHT22;36284;37.236;-121.934;2022-08-19T14:11:29;17.20;99.90
20200;DHT22;36284;37.236;-121.934;2022-08-19T14:13:56;17.20;99.90
20200;DHT22;36284;37.236;-121.934;2022-08-19T14:16:23;17.10;99.90
20200;DHT22;36284;37.236;-121.934;2022-08-19T14:18:51;17.00;99.90
20200;DHT22;36284;37.236;-121.934;2022-08-19T14:21:23;17.00;99.90
20200;DHT22;36284;37.236;-121.934;2022-08-19T14:23:51;17.00;99.90
20200;DHT22;36284;37.236;-121.934;2022-08-19T14:26:19;17.00;99.90
20200;DHT22;36284;37.236;-121.934;2022-08-19T14:28:47;17.10;99.90
20200;DHT22;36284;37.236;-121.934;2022-08-19T14:31:15;17.10;99.90
20200;DHT22;36284;37.236;-121.934;2022-08-19T14:33:46;17.20;99.90
20200;DHT22;36284;37.236;-121.934;2022-08-19T14:36:13;17.20;99.90
20200;DHT22;36284;37.236;-121.934;2022-08-19T14:38:41;17.30;99.90
20200;DHT22;36284;37.236;-121.934;2022-08-19T14:41:17;17.20;99.90
20200;DHT22;36284;37.236;-121.934;2022-08-19T14:43:47;17.30;99.90
20200;DHT22;36284;37.236;-121.934;2022-08-19T14:46:16;17.40;99.90
20200;DHT22;36284;37.236;-121.934;2022-08-19T14:48:43;17.50;99.90
20200;DHT22;36284;37.236;-121.934;2022-08-19T14:51:11;17.50;99.90
20200;DHT22;36284;37.236;-121.934;2022-08-19T14:53:38;17.60;99.90
20200;DHT22;36284;37.236;-121.934;2022-08-19T14:56:10;17.70;99.90
20200;DHT22;36284;37.236;-121.934;2022-08-19T14:58:37;17.80;99.90
20200;DHT22;36284;37.236;-121.934;2022-08-19T15:01:04;17.90;99.90
20200;DHT22;36284;37.236;-121.934;2022-08-19T15:03:31;18.00;99.90
20200;DHT22;36284;37.236;-121.934;2022-08-19T15:06:03;18.40;99.90
20200;DHT22;36284;37.236;-121.934;2022-08-19T15:08:32;18.60;99.90
20200;DHT22;36284;37.236;-121.934;2022-08-19T15:11:01;19.00;99.90
20200;DHT22;36284;37.236;-121.934;2022-08-19T15:13:29;20.00;99.90